createdAt,value
2018-09-02T00:01:02.867Z,1.47
2018-09-02T00:03:31.363Z,3.50
2018-09-02T00:06:00.388Z,2.63
2018-09-02T00:08:28.834Z,1.93
2018-09-02T00:10:57.334Z,1.80
2018-09-02T00:13:25.985Z,1.27
2018-09-02T00:15:54.418Z,2.13
2018-09-02T00:18:22.904Z,1.13
2018-09-02T00:20:51.702Z,1.60
2018-09-02T00:23:20.122Z,2.00
2018-09-02T00:25:48.611Z,1.40
2018-09-02T00:28:17.250Z,1.67
2018-09-02T00:30:45.699Z,2.27
2018-09-02T00:33:14.184Z,1.83
2018-09-02T00:35:42.848Z,1.47
2018-09-02T00:38:11.389Z,1.40
2018-09-02T00:40:39.850Z,1.63
2018-09-02T00:43:08.522Z,1.47
2018-09-02T00:45:36.970Z,1.57
2018-09-02T00:48:05.442Z,1.70
2018-09-02T00:50:33.882Z,1.50
2018-09-02T00:53:02.358Z,1.43
2018-09-02T00:55:30.844Z,1.90
2018-09-02T00:57:59.506Z,1.93
2018-09-02T01:00:28.015Z,1.77
2018-09-02T01:02:56.516Z,1.40
2018-09-02T01:05:25.041Z,1.90
2018-09-02T01:07:54.787Z,1.73
2018-09-02T01:10:23.242Z,1.50
2018-09-02T01:12:51.986Z,2.20
2018-09-02T01:15:20.428Z,1.30
2018-09-02T01:17:48.899Z,1.57
2018-09-02T01:20:17.575Z,1.97
2018-09-02T01:22:46.051Z,1.77
2018-09-02T01:25:14.514Z,1.50
2018-09-02T01:27:43.043Z,1.70
2018-09-02T01:30:11.604Z,1.27
2018-09-02T01:32:40.043Z,1.10
2018-09-02T01:35:10.939Z,1.30
2018-09-02T01:37:39.438Z,1.50
2018-09-02T01:40:07.870Z,1.60
2018-09-02T01:42:36.378Z,1.23
2018-09-02T01:45:05.219Z,1.47
2018-09-02T01:47:33.687Z,1.40
2018-09-02T01:50:02.378Z,1.30
2018-09-02T01:52:30.815Z,2.43
2018-09-02T01:54:59.274Z,1.37
2018-09-02T01:57:27.950Z,1.70
2018-09-02T01:59:56.506Z,1.67
2018-09-02T02:02:24.971Z,1.27
2018-09-02T02:04:53.631Z,1.60
2018-09-02T02:07:22.080Z,1.70
2018-09-02T02:09:50.546Z,1.87
2018-09-02T02:12:19.054Z,1.47
2018-09-02T02:14:47.487Z,1.93
2018-09-02T02:17:15.947Z,1.67
2018-09-02T02:19:44.587Z,1.83
2018-09-02T02:22:13.040Z,1.50
2018-09-02T02:24:41.450Z,2.13
2018-09-02T02:27:09.978Z,1.60
2018-09-02T02:29:38.543Z,1.30
2018-09-02T02:32:06.999Z,1.70
2018-09-02T02:34:35.613Z,1.33
2018-09-02T02:37:04.103Z,1.40
2018-09-02T02:39:32.578Z,1.60
2018-09-02T02:42:01.346Z,2.10
2018-09-02T02:44:29.762Z,1.70
2018-09-02T02:46:58.297Z,1.37
2018-09-02T02:49:27.043Z,1.37
2018-09-02T02:51:55.551Z,1.57
2018-09-02T02:54:24.071Z,2.53
2018-09-02T02:56:52.516Z,1.30
2018-09-02T02:59:20.966Z,2.13
2018-09-02T03:01:49.439Z,1.73
2018-09-02T03:04:17.955Z,2.07
2018-09-02T03:06:46.418Z,2.43
2018-09-02T03:09:14.936Z,1.80
2018-09-02T03:11:43.712Z,1.90
2018-09-02T03:14:12.229Z,2.03
2018-09-02T03:16:41.049Z,2.07
2018-09-02T03:19:10.390Z,2.70
2018-09-02T03:21:39.059Z,1.90
2018-09-02T03:24:07.544Z,1.73
2018-09-02T03:26:36.235Z,2.40
2018-09-02T03:29:04.843Z,1.73
2018-09-02T03:31:33.314Z,1.63
2018-09-02T03:34:01.971Z,2.30
2018-09-02T03:36:30.495Z,1.97
2018-09-02T03:38:58.947Z,1.50
2018-09-02T04:24:15.478Z,1.97
2018-09-02T04:26:43.916Z,1.63
2018-09-02T04:29:12.734Z,1.50
2018-09-02T04:31:41.625Z,1.53
2018-09-02T04:34:10.054Z,1.93
2018-09-02T04:36:38.474Z,1.77
2018-09-02T04:39:09.099Z,2.30
2018-09-02T04:41:37.876Z,1.70
2018-09-02T04:44:06.566Z,2.63
2018-09-02T04:46:35.496Z,1.70
2018-09-02T04:49:03.915Z,1.70
2018-09-02T04:51:32.454Z,1.53
2018-09-02T04:54:01.106Z,1.70
2018-09-02T04:56:29.592Z,1.90
2018-09-02T04:58:58.059Z,1.70
2018-09-02T05:01:26.723Z,1.57
2018-09-02T05:03:55.195Z,1.83
2018-09-02T05:06:23.605Z,1.67
2018-09-02T05:08:52.150Z,1.57
2018-09-02T05:11:20.566Z,1.77
2018-09-02T05:13:49.002Z,1.80
2018-09-02T05:16:17.626Z,1.63
2018-09-02T05:18:46.084Z,1.90
2018-09-02T05:21:14.778Z,1.60
2018-09-02T05:23:43.418Z,1.87
2018-09-02T05:26:11.866Z,2.30
2018-09-02T05:28:40.337Z,1.90
2018-09-02T05:31:08.914Z,1.87
2018-09-02T05:33:37.419Z,1.77
2018-09-02T05:36:06.023Z,2.07
2018-09-02T05:38:34.683Z,1.40
2018-09-02T05:41:03.106Z,1.80
2018-09-02T05:43:31.614Z,1.87
2018-09-02T05:46:00.111Z,2.10
2018-09-02T05:48:28.603Z,3.73
2018-09-02T05:50:57.018Z,3.90
2018-09-02T05:53:25.756Z,3.13
2018-09-02T05:55:54.179Z,2.47
2018-09-02T05:58:22.698Z,1.90
2018-09-02T06:00:51.119Z,3.50
2018-09-02T06:03:19.579Z,3.43
2018-09-02T06:05:48.031Z,2.77
2018-09-02T06:08:16.554Z,2.13
2018-09-02T06:10:45.075Z,2.20
2018-09-02T06:13:13.546Z,3.03
2018-09-02T06:15:42.065Z,2.13
2018-09-02T06:18:10.622Z,1.80
2018-09-02T06:20:39.099Z,2.03
2018-09-02T06:23:07.882Z,2.43
2018-09-02T06:25:37.950Z,1.97
2018-09-02T06:28:06.581Z,2.10
2018-09-02T06:30:35.066Z,2.03
2018-09-02T06:33:05.008Z,2.30
2018-09-02T06:35:33.528Z,1.70
2018-09-02T06:38:02.178Z,2.73
2018-09-02T06:40:30.779Z,2.27
2018-09-02T06:42:59.711Z,2.20
2018-09-02T06:45:28.266Z,2.10
2018-09-02T06:47:56.775Z,2.03
2018-09-02T06:50:25.263Z,2.67
2018-09-02T06:52:54.067Z,2.63
2018-09-02T06:55:22.518Z,2.53
2018-09-02T06:57:51.015Z,1.83
2018-09-02T07:00:19.748Z,2.20
2018-09-02T07:02:48.619Z,2.13
2018-09-02T07:05:17.126Z,2.00
2018-09-02T07:07:45.679Z,2.63
2018-09-02T07:10:14.216Z,2.30
2018-09-02T07:12:44.303Z,2.33
2018-09-02T07:15:13.727Z,2.77
2018-09-02T07:17:42.235Z,2.07
2018-09-02T07:20:10.679Z,3.27
2018-09-02T07:22:39.411Z,2.67
2018-09-02T07:25:08.045Z,1.90
2018-09-02T07:27:36.550Z,3.50
2018-09-02T07:30:05.551Z,2.33
2018-09-02T07:32:34.075Z,2.33
2018-09-02T07:35:02.558Z,1.97
2018-09-02T07:37:31.064Z,2.70
2018-09-02T07:39:59.489Z,2.67
2018-09-02T07:42:27.999Z,3.00
2018-09-02T07:44:56.594Z,2.80
2018-09-02T07:47:25.503Z,2.40
2018-09-02T07:49:53.974Z,3.00
2018-09-02T07:52:22.898Z,3.20
2018-09-02T07:54:51.414Z,2.80
2018-09-02T07:57:19.895Z,2.83
2018-09-02T07:59:48.722Z,2.70
2018-09-02T08:02:17.167Z,3.40
2018-09-02T08:04:45.594Z,2.50
2018-09-02T08:07:14.183Z,2.53
2018-09-02T08:09:42.690Z,2.13
2018-09-02T08:12:11.130Z,2.77
2018-09-02T08:14:39.896Z,2.40
2018-09-02T08:17:08.358Z,3.50
2018-09-02T08:19:36.806Z,2.60
2018-09-02T08:22:05.338Z,2.83
2018-09-02T08:24:33.971Z,2.87
2018-09-02T08:27:02.450Z,2.70
2018-09-02T08:29:30.926Z,2.80
2018-09-02T08:31:59.456Z,2.90
2018-09-02T08:34:27.928Z,2.60
2018-09-02T08:36:56.691Z,2.87
2018-09-02T08:39:25.199Z,2.97
2018-09-02T08:41:53.619Z,3.10
2018-09-02T08:44:22.203Z,3.00
2018-09-02T08:46:50.587Z,2.70
2018-09-02T08:49:19.043Z,3.40
2018-09-02T08:51:47.862Z,2.43
2018-09-02T08:54:16.286Z,3.53
2018-09-02T08:56:44.867Z,3.37
2018-09-02T08:59:13.403Z,2.97
2018-09-02T09:01:41.942Z,2.80
2018-09-02T09:04:10.358Z,2.73
2018-09-02T09:06:38.827Z,3.57
2018-09-02T09:09:07.884Z,2.90
2018-09-02T09:11:36.427Z,2.60
2018-09-02T09:14:05.148Z,3.17
2018-09-02T09:16:34.164Z,2.10
2018-09-02T09:19:02.646Z,2.70
2018-09-02T09:21:31.656Z,2.50
2018-09-02T09:24:00.106Z,3.20
2018-09-02T09:26:28.634Z,3.27
2018-09-02T09:28:57.182Z,2.60
2018-09-02T09:31:25.642Z,3.23
2018-09-02T09:33:54.246Z,3.30
2018-09-02T09:36:22.775Z,3.20
2018-09-02T09:38:51.216Z,3.10
2018-09-02T09:41:19.619Z,2.40
2018-09-02T09:43:49.059Z,3.63
2018-09-02T09:46:17.510Z,2.60
2018-09-02T09:48:46.040Z,3.40
2018-09-02T09:51:14.990Z,3.20
2018-09-02T09:53:43.758Z,3.70
2018-09-02T09:56:12.210Z,3.43
2018-09-02T09:58:40.680Z,3.43
2018-09-02T10:01:09.239Z,3.63
2018-09-02T10:03:37.744Z,3.93
2018-09-02T10:06:06.575Z,3.83
2018-09-02T10:08:35.035Z,3.30
2018-09-02T10:11:03.483Z,2.87
2018-09-02T10:13:32.155Z,3.43
2018-09-02T10:16:00.803Z,2.93
2018-09-02T10:18:29.324Z,3.13
2018-09-02T10:20:57.787Z,3.60
2018-09-02T10:23:26.210Z,2.70
2018-09-02T10:25:54.790Z,4.50
2018-09-02T10:28:23.363Z,3.23
2018-09-02T10:30:51.779Z,3.70
2018-09-02T10:33:20.307Z,3.73
2018-09-02T10:35:48.774Z,3.97
2018-09-02T10:38:17.221Z,2.97
2018-09-02T10:40:45.658Z,3.47
2018-09-02T10:43:14.395Z,3.83
2018-09-02T10:45:42.878Z,3.10
2018-09-02T10:48:11.348Z,3.93
2018-09-02T10:50:39.969Z,3.30
2018-09-02T10:53:08.517Z,4.77
2018-09-02T10:55:36.954Z,3.90
2018-09-02T10:58:05.858Z,3.23
2018-09-02T11:00:34.307Z,3.70
2018-09-02T11:03:02.747Z,3.80
2018-09-02T11:05:31.178Z,2.60
2018-09-02T11:07:59.601Z,3.90
2018-09-02T11:10:28.051Z,3.50
2018-09-02T11:12:56.657Z,2.77
2018-09-02T11:15:25.154Z,3.73
2018-09-02T11:17:53.682Z,2.90
2018-09-02T11:20:22.257Z,3.40
2018-09-02T11:22:50.695Z,3.60
2018-09-02T11:25:19.208Z,3.70
2018-09-02T11:27:48.003Z,3.67
2018-09-02T11:30:16.539Z,3.70
2018-09-02T11:32:45.197Z,3.70
2018-09-02T11:35:13.940Z,3.40
2018-09-02T11:37:42.429Z,2.80
2018-09-02T11:40:10.910Z,3.70
2018-09-02T11:42:39.434Z,3.37
2018-09-02T11:45:08.021Z,3.07
2018-09-02T11:47:36.386Z,2.80
2018-09-02T11:50:05.207Z,3.60
2018-09-02T11:52:33.663Z,3.23
2018-09-02T11:55:02.103Z,2.77
2018-09-02T11:57:30.837Z,2.87
2018-09-02T11:59:59.419Z,3.40
2018-09-02T12:02:27.858Z,2.77
2018-09-02T12:04:56.562Z,3.30
2018-09-02T12:07:24.947Z,3.00
2018-09-02T12:09:53.695Z,3.13
2018-09-02T12:12:22.320Z,3.60
2018-09-02T12:14:50.838Z,2.57
2018-09-02T12:17:19.458Z,3.13
2018-09-02T12:19:48.116Z,3.30
2018-09-02T12:22:16.738Z,2.80
2018-09-02T12:24:45.231Z,2.50
2018-09-02T12:27:13.879Z,2.50
2018-09-02T12:29:42.572Z,2.53
2018-09-02T12:32:11.007Z,2.70
2018-09-02T12:34:39.571Z,3.57
2018-09-02T12:37:07.983Z,2.67
2018-09-02T12:39:36.472Z,3.67
2018-09-02T12:42:05.220Z,2.70
2018-09-02T12:44:33.707Z,2.87
2018-09-02T12:47:02.191Z,3.20
2018-09-02T12:49:30.727Z,3.17
2018-09-02T12:51:59.355Z,2.40
2018-09-02T12:54:28.007Z,3.53
2018-09-02T12:56:56.503Z,2.80
2018-09-02T12:59:25.108Z,2.63
2018-09-02T13:01:53.620Z,2.30
2018-09-02T13:04:22.378Z,2.80
2018-09-02T13:06:50.934Z,2.60
2018-09-02T13:09:19.601Z,2.97
2018-09-02T13:11:48.472Z,2.70
2018-09-02T13:14:16.975Z,3.07
2018-09-02T13:16:45.440Z,2.80
2018-09-02T13:19:14.103Z,2.97
2018-09-02T13:21:42.636Z,2.80
2018-09-02T13:24:11.141Z,3.20
2018-09-02T13:26:39.696Z,2.70
2018-09-02T13:29:08.262Z,2.43
2018-09-02T13:31:37.004Z,3.03
2018-09-02T13:34:05.695Z,2.30
2018-09-02T13:36:34.266Z,2.40
2018-09-02T13:39:02.875Z,3.40
2018-09-02T13:41:31.751Z,2.20
2018-09-02T13:44:00.255Z,2.70
2018-09-02T13:46:28.737Z,1.70
2018-09-02T13:48:57.459Z,3.00
2018-09-02T13:51:26.194Z,1.70
2018-09-02T13:53:54.631Z,1.97
2018-09-02T13:56:23.252Z,1.83
2018-09-02T13:58:51.903Z,2.20
2018-09-02T14:01:20.424Z,1.70
2018-09-02T14:03:49.038Z,1.97
2018-09-02T14:06:17.451Z,1.50
2018-09-02T14:08:45.918Z,1.73
2018-09-02T14:11:15.038Z,1.87
2018-09-02T14:13:43.601Z,1.83
2018-09-02T14:16:12.115Z,2.10
2018-09-02T14:18:40.863Z,1.87
2018-09-02T14:21:09.336Z,1.73
2018-09-02T14:23:37.782Z,1.63
2018-09-02T14:26:06.604Z,2.03
2018-09-02T14:28:35.074Z,1.70
2018-09-02T14:31:04.003Z,1.60
2018-09-02T14:33:32.707Z,2.10
2018-09-02T14:36:01.155Z,1.57
2018-09-02T14:38:29.619Z,2.03
2018-09-02T14:40:58.183Z,1.33
2018-09-02T14:43:26.671Z,1.33
2018-09-02T14:45:55.092Z,1.40
2018-09-02T14:48:23.641Z,1.17
2018-09-02T14:50:52.172Z,1.27
2018-09-02T14:53:20.592Z,1.40
2018-09-02T14:55:49.163Z,1.73
2018-09-02T14:58:17.983Z,1.63
2018-09-02T15:00:46.522Z,1.27
2018-09-02T15:03:15.134Z,1.80
2018-09-02T15:05:43.678Z,1.70
2018-09-02T15:08:12.175Z,2.00
2018-09-02T15:10:40.715Z,1.67
2018-09-02T15:13:09.283Z,1.50
2018-09-02T15:15:37.739Z,1.67
2018-09-02T15:18:11.819Z,1.40
2018-09-02T15:20:40.283Z,1.53
2018-09-02T15:23:08.708Z,1.50
2018-09-02T15:25:37.275Z,1.83
2018-09-02T15:28:05.887Z,1.33
2018-09-02T15:30:34.429Z,1.57
2018-09-02T15:33:03.123Z,1.47
2018-09-02T15:35:31.630Z,1.83
2018-09-02T15:38:00.070Z,1.93
2018-09-02T15:40:28.727Z,1.17
2018-09-02T15:42:57.162Z,1.53
2018-09-02T15:45:26.063Z,1.60
2018-09-02T15:47:54.543Z,1.60
2018-09-02T15:50:23.030Z,1.40
2018-09-02T15:52:51.503Z,1.57
2018-09-02T15:55:20.127Z,1.30
2018-09-02T15:57:48.603Z,1.60
2018-09-02T16:00:17.077Z,1.33
2018-09-02T16:02:45.592Z,1.30
2018-09-02T16:05:14.079Z,1.23
2018-09-02T16:07:42.487Z,1.83
2018-09-02T16:10:11.235Z,1.13
2018-09-02T16:12:39.759Z,1.17
2018-09-02T16:15:08.252Z,1.03
2018-09-02T16:17:36.768Z,1.50
2018-09-02T16:20:05.658Z,1.87
2018-09-02T16:22:34.079Z,1.90
2018-09-02T16:25:02.703Z,1.60
2018-09-02T16:27:31.235Z,1.70
2018-09-02T16:29:59.691Z,1.70
2018-09-02T16:32:30.119Z,1.70
2018-09-02T16:34:58.751Z,1.30
2018-09-02T16:37:27.403Z,2.07
2018-09-02T16:39:55.882Z,1.93
2018-09-02T16:42:24.348Z,1.50
2018-09-02T16:44:53.124Z,1.73
2018-09-02T16:47:21.723Z,1.77
2018-09-02T16:49:50.262Z,2.03
2018-09-02T16:52:19.035Z,1.70
2018-09-02T16:54:47.719Z,2.03
2018-09-02T16:57:16.225Z,2.00
2018-09-02T16:59:44.715Z,1.60
2018-09-02T17:02:13.549Z,2.00
2018-09-02T17:04:43.942Z,1.93
2018-09-02T17:07:12.387Z,2.03
2018-09-02T17:09:41.048Z,1.60
2018-09-02T17:12:09.638Z,2.10
2018-09-02T17:14:38.094Z,1.80
2018-09-02T17:17:06.824Z,1.97
2018-09-02T17:19:37.591Z,1.50
2018-09-02T17:22:06.688Z,1.93
2018-09-02T17:24:35.408Z,1.70
2018-09-02T17:27:03.923Z,2.07
2018-09-02T17:29:32.659Z,1.83
2018-09-02T17:32:05.029Z,1.80
2018-09-02T17:34:33.606Z,3.07
2018-09-02T17:37:02.072Z,1.50
2018-09-02T17:39:30.606Z,1.87
2018-09-02T17:41:59.038Z,2.10
2018-09-02T17:44:27.559Z,2.00
2018-09-02T17:46:56.034Z,2.30
2018-09-02T17:49:24.954Z,2.43
2018-09-02T17:51:53.457Z,1.83
2018-09-02T17:54:22.004Z,1.63
2018-09-02T17:56:50.581Z,1.37
2018-09-02T17:59:19.163Z,2.10
2018-09-02T18:01:48.252Z,2.13
2018-09-02T18:04:16.735Z,2.00
2018-09-02T18:06:45.553Z,2.07
2018-09-02T18:09:14.059Z,2.70
2018-09-02T18:11:43.199Z,2.90
2018-09-02T18:14:11.764Z,1.90
2018-09-02T18:16:40.429Z,1.30
2018-09-02T18:19:09.436Z,1.93
2018-09-02T18:21:38.133Z,1.57
2018-09-02T18:24:06.644Z,1.87
2018-09-02T18:26:35.182Z,1.60
2018-09-02T18:29:03.738Z,2.00
2018-09-02T18:31:32.331Z,2.00
2018-09-02T18:34:01.135Z,1.20
2018-09-02T18:36:29.853Z,1.50
2018-09-02T18:38:58.309Z,1.70
2018-09-02T18:41:26.939Z,1.87
2018-09-02T18:43:55.776Z,1.60
2018-09-02T18:46:25.413Z,1.37
2018-09-02T18:48:54.364Z,2.10
2018-09-02T18:51:23.057Z,1.70
2018-09-02T18:53:51.698Z,1.40
2018-09-02T18:56:20.481Z,1.67
2018-09-02T18:58:49.142Z,1.67
2018-09-02T19:01:17.759Z,1.70
2018-09-02T19:03:46.626Z,1.90
2018-09-02T19:06:15.133Z,1.70
2018-09-02T19:08:43.643Z,2.43
2018-09-02T19:11:12.822Z,1.70
2018-09-02T19:13:41.295Z,1.93
2018-09-02T19:16:09.993Z,1.60
2018-09-02T19:18:38.637Z,2.00
2018-09-02T19:21:07.466Z,2.37
2018-09-02T19:23:36.263Z,1.77
2018-09-02T19:26:05.215Z,1.87
2018-09-02T19:28:33.743Z,1.60
2018-09-02T19:31:02.445Z,1.73
2018-09-02T19:33:31.951Z,1.53
2018-09-02T19:36:00.563Z,1.67
2018-09-02T19:38:30.450Z,2.10
2018-09-02T19:41:02.667Z,1.63
2018-09-02T19:43:31.392Z,2.40
2018-09-02T19:46:00.847Z,1.50
2018-09-02T19:48:29.365Z,1.60
2018-09-02T19:50:57.879Z,1.87
2018-09-02T19:53:26.631Z,1.80
2018-09-02T19:55:55.278Z,2.40
2018-09-02T19:58:23.868Z,1.30
2018-09-02T20:00:52.624Z,2.03
2018-09-02T20:03:21.160Z,1.50
2018-09-02T20:05:49.611Z,1.40
2018-09-02T20:08:19.027Z,1.60
2018-09-02T20:10:47.504Z,1.60
2018-09-02T20:13:15.992Z,2.07
2018-09-02T20:15:44.683Z,2.00
2018-09-02T20:18:13.249Z,1.33
2018-09-02T20:20:41.675Z,1.57
2018-09-02T20:23:10.107Z,1.90
2018-09-02T20:25:38.601Z,1.80
2018-09-02T20:28:07.495Z,1.87
2018-09-02T20:30:36.266Z,1.70
2018-09-02T20:33:05.758Z,1.70
2018-09-02T20:35:34.213Z,2.07
2018-09-02T20:38:02.824Z,1.97
2018-09-02T20:40:31.939Z,1.63
2018-09-02T20:43:00.408Z,2.00
2018-09-02T20:45:28.969Z,1.90
2018-09-02T20:47:57.395Z,1.77
2018-09-02T20:50:25.821Z,2.63
2018-09-02T20:52:54.275Z,1.97
2018-09-02T20:55:22.708Z,2.07
2018-09-02T20:57:51.184Z,1.40
2018-09-02T21:00:19.943Z,1.80
2018-09-02T21:02:48.527Z,1.70
2018-09-02T21:05:17.559Z,2.10
2018-09-02T21:07:46.849Z,2.03
2018-09-02T21:10:15.414Z,1.40
2018-09-02T21:12:44.107Z,1.67
2018-09-02T21:15:12.544Z,1.93
2018-09-02T21:17:41.050Z,1.60
2018-09-02T21:20:09.567Z,1.80
2018-09-02T21:22:38.171Z,2.10
2018-09-02T21:25:06.687Z,1.90
2018-09-02T21:27:35.151Z,2.20
2018-09-02T21:30:03.907Z,2.13
2018-09-02T21:32:32.375Z,2.47
2018-09-02T21:35:00.919Z,2.50
2018-09-02T21:37:29.747Z,1.40
2018-09-02T21:39:58.183Z,1.70
2018-09-02T21:42:26.633Z,1.87
2018-09-02T21:44:55.247Z,1.73
2018-09-02T21:47:23.694Z,2.37
2018-09-02T21:49:52.190Z,2.03
2018-09-02T21:52:20.734Z,1.93
2018-09-02T21:54:49.301Z,1.60
2018-09-02T21:57:17.691Z,2.07
2018-09-02T21:59:46.334Z,2.53
2018-09-02T22:02:14.771Z,2.53
2018-09-02T22:04:43.175Z,1.93
2018-09-02T22:07:11.822Z,3.00
2018-09-02T22:09:40.254Z,2.33
2018-09-02T22:12:08.767Z,2.00
2018-09-02T22:14:37.270Z,2.33
2018-09-02T22:17:05.818Z,1.80
2018-09-02T22:19:34.306Z,2.00
2018-09-02T22:22:02.995Z,2.30
2018-09-02T22:24:31.506Z,1.97
2018-09-02T22:27:00.152Z,1.93
2018-09-02T22:29:28.651Z,1.70
2018-09-02T22:31:57.052Z,1.77
2018-09-02T22:34:25.528Z,1.33
2018-09-02T22:36:54.164Z,2.00
2018-09-02T22:39:22.582Z,2.53
2018-09-02T22:41:51.113Z,2.20
2018-09-02T22:44:19.765Z,1.63
2018-09-02T22:46:48.319Z,1.93
2018-09-02T22:49:16.755Z,2.07
2018-09-02T22:51:45.231Z,1.67
2018-09-02T22:54:13.746Z,1.90
2018-09-02T22:56:42.142Z,3.00
2018-09-02T22:59:10.942Z,2.23
2018-09-02T23:01:39.442Z,1.50
2018-09-02T23:04:07.975Z,2.03
2018-09-02T23:06:36.447Z,2.13
2018-09-02T23:09:06.082Z,2.10
2018-09-02T23:11:34.527Z,2.10
2018-09-02T23:14:03.214Z,1.70
2018-09-02T23:16:32.334Z,1.80
2018-09-02T23:19:00.758Z,1.83
2018-09-02T23:21:29.492Z,1.90
2018-09-02T23:23:58.195Z,2.07
2018-09-02T23:26:26.719Z,1.80
2018-09-02T23:28:55.526Z,1.40
2018-09-02T23:31:23.947Z,1.83
2018-09-02T23:33:52.562Z,1.10
2018-09-02T23:36:21.598Z,1.97
2018-09-02T23:38:50.234Z,1.80
2018-09-02T23:41:18.711Z,1.83
2018-09-02T23:43:47.346Z,1.90
2018-09-02T23:46:15.962Z,2.17
2018-09-02T23:48:44.411Z,2.20
2018-09-02T23:51:12.898Z,2.47
2018-09-02T23:53:41.412Z,2.07
2018-09-02T23:56:09.952Z,2.10
2018-09-02T23:58:38.626Z,2.27
